This is the latest recevied weather packets stored in our database for station/object AC8JV. If no packets are shown the sender has not sent any weather packets the latest 1 day(s).
| Time | Temp. | Humidity | Pressure | Rain* | Wind** | Luminosity | Snow |
|---|---|---|---|---|---|---|---|
| 1777993223 | 9.44° C | 49% | 1009.4 hPa | 0 mm | 3.13 m/s, 279° | - | - |
| 1777992608 | 9.44° C | 52% | 1009.2 hPa | 0 mm | 3.58 m/s, 315° | - | - |
| 1777991999 | 9.44° C | 53% | 1009.1 hPa | 0 mm | 3.58 m/s, 325° | - | - |
| 1777991406 | 9.44° C | 55% | 1008.8 hPa | 0 mm | 4.02 m/s, 286° | - | - |
| 1777990812 | 9.44° C | 57% | 1008.8 hPa | 0 mm | 5.36 m/s, 279° | - | - |
| 1777990208 | 8.89° C | 58% | 1008.7 hPa | 0 mm | 4.02 m/s, 313° | - | - |
| 1777989633 | 8.89° C | 62% | 1008.5 hPa | 0 mm | 4.47 m/s, 275° | - | - |
| 1777989008 | 8.89° C | 65% | 1008.5 hPa | 0 mm | 4.92 m/s, 286° | - | - |
| 1777988401 | 8.33° C | 68% | 1008.2 hPa | 0 mm | 4.47 m/s, 283° | - | - |
| 1777987832 | 8.33° C | 69% | 1008.2 hPa | 0 mm | 3.58 m/s, 276° | - | - |
| 1777987204 | 8.33° C | 71% | 1008.4 hPa | 0 mm | 4.47 m/s, 277° | - | - |
| 1777986626 | 8.33° C | 74% | 1007.9 hPa | 0 mm | 4.02 m/s, 276° | - | - |
| 1777986001 | 8.33° C | 75% | 1007.9 hPa | 0 mm | 3.13 m/s, 256° | - | - |
| 1777985441 | 7.78° C | 76% | 1007.8 hPa | 0 mm | 2.68 m/s, 278° | - | - |
| 1777984803 | 7.78° C | 77% | 1007.8 hPa | 0 mm | 4.92 m/s, 280° | - | - |
| 1777984203 | 7.78° C | 78% | 1007.2 hPa | 0 mm | 3.13 m/s, 284° | - | - |
| 1777983605 | 8.33° C | 77% | 1007.2 hPa | 0 mm | 3.58 m/s, 281° | - | - |
| 1777982999 | 8.33° C | 78% | 1006.9 hPa | 0 mm | 4.02 m/s, 280° | - | - |
| 1777982405 | 8.33° C | 78% | 1007 hPa | 0 mm | 4.92 m/s, 277° | - | - |
| 1777981811 | 8.33° C | 76% | 1006.3 hPa | 0 mm | 3.58 m/s, 288° | - | - |
| 1777981199 | 8.33° C | 76% | 1006.4 hPa | 0 mm | 4.02 m/s, 282° | - | - |
| 1777980603 | 8.33° C | 76% | 1006.2 hPa | 0 mm | 3.58 m/s, 286° | - | - |
| 1777980009 | 8.33° C | 76% | 1005.9 hPa | 0 mm | 3.58 m/s, 275° | - | - |
| 1777979414 | 8.33° C | 75% | 1005.8 hPa | 0 mm | 1.79 m/s, 282° | - | - |
| 1777978811 | 8.33° C | 74% | 1005.8 hPa | 0 mm | 3.13 m/s, 304° | - | - |
* Rain latest hour (hover to see other rain measurements)
** Current wind speed in m/s (hover to see current wind gust speed)